PADK/ADK METAR and TAF weather

Enter ICAO airport designator
Station Type Date Time Source
PADK METAR 2022/01/26 08:56 UTC NOAA

PADK 260856Z AUTO 13019G28KT 10SM OVC038 02/M03 A3000 RMK AO2 PK WND 13028/0852 SLP159 60000 T00221033 58011 FZRANO


Station Type Date Time Source
PADK Decoded METAR 2022/01/26 08:56 UTC NOAA

Adak Island, Adak Airport, AK, United States (PADK) 51-52-40N 176-38-45W 4M
Jan 26, 2022 - 03:56 AM EST / 2022.01.26 0856 UTC
Wind: from the SE (130 degrees) at 22 MPH (19 KT) gusting to 32 MPH (28 KT):0
Visibility: 10 mile(s):0
Sky conditions: overcast
Temperature: 36.0 F (2.2 C)
Dew Point: 26.1 F (-3.3 C)
Relative Humidity: 66%
Pressure (altimeter): 30 in. Hg (1015 hPa)
Pressure tendency: 0.03 inches (1.1 hPa) lower than three hours ago
ob: PADK 260856Z AUTO 13019G28KT 10SM OVC038 02/M03 A3000 RMK AO2 PK WND 13028/0852 SLP159 60000 T00221033 58011 FZRANO
cycle: 9

Station Type Date Time Source
PADK TAF 2007/04/07 12:54 UTC NOAA

TAF PADK 070404 33010G15KT 9999 FEW025 BKN030 OVC050 QNH2900INS T03/00Z TM01/18Z COR 1205 LAST NO
AMDS AFT 0712;

Example: see airport list